sensor_id;sensor_type;location;lat;lon;timestamp;P1;durP1;ratioP1;P2;durP2;ratioP2
13443;SDS011;6794;59.218;18.218;2023-07-22T00:00:15;3.80;;;1.60;;
13443;SDS011;6794;59.218;18.218;2023-07-22T00:02:42;3.30;;;1.50;;
13443;SDS011;6794;59.218;18.218;2023-07-22T00:05:08;3.63;;;1.63;;
13443;SDS011;6794;59.218;18.218;2023-07-22T00:07:35;3.00;;;1.47;;
13443;SDS011;6794;59.218;18.218;2023-07-22T00:10:01;1.97;;;1.87;;
13443;SDS011;6794;59.218;18.218;2023-07-22T00:12:27;4.70;;;1.57;;
13443;SDS011;6794;59.218;18.218;2023-07-22T00:14:54;3.33;;;1.60;;
13443;SDS011;6794;59.218;18.218;2023-07-22T00:17:20;4.80;;;1.70;;
13443;SDS011;6794;59.218;18.218;2023-07-22T00:19:46;1.97;;;1.50;;
13443;SDS011;6794;59.218;18.218;2023-07-22T00:22:13;2.53;;;1.50;;
13443;SDS011;6794;59.218;18.218;2023-07-22T00:24:40;2.23;;;1.73;;
13443;SDS011;6794;59.218;18.218;2023-07-22T00:27:06;3.40;;;1.70;;
13443;SDS011;6794;59.218;18.218;2023-07-22T00:29:33;2.13;;;1.40;;
13443;SDS011;6794;59.218;18.218;2023-07-22T00:31:59;1.70;;;1.60;;
13443;SDS011;6794;59.218;18.218;2023-07-22T00:34:25;4.33;;;1.97;;
13443;SDS011;6794;59.218;18.218;2023-07-22T00:36:51;2.27;;;1.50;;
13443;SDS011;6794;59.218;18.218;2023-07-22T00:39:17;1.77;;;1.47;;
13443;SDS011;6794;59.218;18.218;2023-07-22T00:41:45;2.30;;;1.63;;
13443;SDS011;6794;59.218;18.218;2023-07-22T00:44:11;4.97;;;1.83;;
13443;SDS011;6794;59.218;18.218;2023-07-22T00:46:37;3.23;;;1.80;;
13443;SDS011;6794;59.218;18.218;2023-07-22T00:49:07;2.67;;;1.70;;
13443;SDS011;6794;59.218;18.218;2023-07-22T00:51:33;2.37;;;1.80;;
13443;SDS011;6794;59.218;18.218;2023-07-22T00:53:59;4.37;;;1.93;;
13443;SDS011;6794;59.218;18.218;2023-07-22T00:56:25;5.00;;;1.87;;
13443;SDS011;6794;59.218;18.218;2023-07-22T00:58:52;3.87;;;2.20;;
13443;SDS011;6794;59.218;18.218;2023-07-22T01:01:18;1.87;;;1.70;;
13443;SDS011;6794;59.218;18.218;2023-07-22T01:03:44;3.10;;;1.80;;
13443;SDS011;6794;59.218;18.218;2023-07-22T01:06:11;3.50;;;1.87;;
13443;SDS011;6794;59.218;18.218;2023-07-22T01:08:37;6.83;;;1.90;;
13443;SDS011;6794;59.218;18.218;2023-07-22T01:11:04;2.40;;;1.70;;
13443;SDS011;6794;59.218;18.218;2023-07-22T01:13:31;5.00;;;1.70;;
13443;SDS011;6794;59.218;18.218;2023-07-22T01:15:57;2.40;;;1.77;;
13443;SDS011;6794;59.218;18.218;2023-07-22T01:18:23;4.73;;;2.20;;
13443;SDS011;6794;59.218;18.218;2023-07-22T01:20:49;2.23;;;2.03;;
13443;SDS011;6794;59.218;18.218;2023-07-22T01:23:15;7.80;;;1.90;;
13443;SDS011;6794;59.218;18.218;2023-07-22T01:25:41;5.80;;;2.00;;
13443;SDS011;6794;59.218;18.218;2023-07-22T01:28:11;3.90;;;1.83;;
13443;SDS011;6794;59.218;18.218;2023-07-22T01:30:37;3.67;;;2.23;;
13443;SDS011;6794;59.218;18.218;2023-07-22T01:33:04;4.03;;;1.93;;
13443;SDS011;6794;59.218;18.218;2023-07-22T01:35:30;3.13;;;1.37;;
13443;SDS011;6794;59.218;18.218;2023-07-22T01:37:56;3.38;;;1.95;;
13443;SDS011;6794;59.218;18.218;2023-07-22T01:40:23;3.43;;;1.77;;
13443;SDS011;6794;59.218;18.218;2023-07-22T01:42:50;2.30;;;1.70;;
13443;SDS011;6794;59.218;18.218;2023-07-22T01:45:16;1.97;;;1.40;;
13443;SDS011;6794;59.218;18.218;2023-07-22T01:47:42;2.10;;;1.60;;
13443;SDS011;6794;59.218;18.218;2023-07-22T01:50:08;1.77;;;1.50;;
13443;SDS011;6794;59.218;18.218;2023-07-22T01:52:37;2.17;;;1.73;;
13443;SDS011;6794;59.218;18.218;2023-07-22T01:55:03;3.87;;;1.83;;
13443;SDS011;6794;59.218;18.218;2023-07-22T01:57:31;3.67;;;1.73;;
13443;SDS011;6794;59.218;18.218;2023-07-22T01:59:57;2.93;;;1.57;;
13443;SDS011;6794;59.218;18.218;2023-07-22T02:02:24;6.33;;;1.50;;
13443;SDS011;6794;59.218;18.218;2023-07-22T02:04:50;4.67;;;1.70;;
13443;SDS011;6794;59.218;18.218;2023-07-22T02:07:16;3.50;;;1.87;;
13443;SDS011;6794;59.218;18.218;2023-07-22T02:09:42;5.10;;;1.60;;
13443;SDS011;6794;59.218;18.218;2023-07-22T02:12:09;4.07;;;1.80;;
13443;SDS011;6794;59.218;18.218;2023-07-22T02:14:36;2.33;;;1.40;;
13443;SDS011;6794;59.218;18.218;2023-07-22T02:17:02;2.57;;;1.23;;
13443;SDS011;6794;59.218;18.218;2023-07-22T02:19:28;2.53;;;1.70;;
13443;SDS011;6794;59.218;18.218;2023-07-22T02:21:54;2.10;;;1.60;;
13443;SDS011;6794;59.218;18.218;2023-07-22T02:24:20;6.57;;;1.60;;
13443;SDS011;6794;59.218;18.218;2023-07-22T02:26:46;2.70;;;1.50;;
13443;SDS011;6794;59.218;18.218;2023-07-22T02:29:12;3.27;;;1.47;;
13443;SDS011;6794;59.218;18.218;2023-07-22T02:31:38;2.97;;;1.63;;
13443;SDS011;6794;59.218;18.218;2023-07-22T02:34:04;3.53;;;1.87;;
13443;SDS011;6794;59.218;18.218;2023-07-22T02:36:31;2.53;;;1.87;;
13443;SDS011;6794;59.218;18.218;2023-07-22T02:38:57;2.13;;;1.70;;
13443;SDS011;6794;59.218;18.218;2023-07-22T02:41:23;2.67;;;1.73;;
13443;SDS011;6794;59.218;18.218;2023-07-22T02:43:49;2.77;;;1.43;;
13443;SDS011;6794;59.218;18.218;2023-07-22T02:46:15;2.50;;;1.70;;
13443;SDS011;6794;59.218;18.218;2023-07-22T02:48:41;2.13;;;1.40;;
13443;SDS011;6794;59.218;18.218;2023-07-22T02:51:08;1.80;;;1.40;;
13443;SDS011;6794;59.218;18.218;2023-07-22T02:53:34;3.20;;;1.70;;
13443;SDS011;6794;59.218;18.218;2023-07-22T02:56:04;3.33;;;1.80;;
13443;SDS011;6794;59.218;18.218;2023-07-22T02:58:31;2.20;;;2.00;;
13443;SDS011;6794;59.218;18.218;2023-07-22T03:00:58;2.53;;;1.60;;
13443;SDS011;6794;59.218;18.218;2023-07-22T03:03:24;1.77;;;1.60;;
13443;SDS011;6794;59.218;18.218;2023-07-22T03:05:50;2.70;;;1.73;;
13443;SDS011;6794;59.218;18.218;2023-07-22T03:08:17;2.30;;;1.70;;
13443;SDS011;6794;59.218;18.218;2023-07-22T03:10:43;3.20;;;1.70;;
13443;SDS011;6794;59.218;18.218;2023-07-22T03:13:13;3.00;;;1.67;;
13443;SDS011;6794;59.218;18.218;2023-07-22T03:15:39;2.83;;;1.73;;
13443;SDS011;6794;59.218;18.218;2023-07-22T03:18:05;2.77;;;1.70;;
13443;SDS011;6794;59.218;18.218;2023-07-22T03:20:32;3.20;;;2.30;;
13443;SDS011;6794;59.218;18.218;2023-07-22T03:22:58;3.60;;;1.77;;
13443;SDS011;6794;59.218;18.218;2023-07-22T03:25:24;2.00;;;1.80;;
13443;SDS011;6794;59.218;18.218;2023-07-22T03:27:51;3.27;;;1.70;;
13443;SDS011;6794;59.218;18.218;2023-07-22T03:30:17;1.70;;;1.60;;
13443;SDS011;6794;59.218;18.218;2023-07-22T03:32:46;3.20;;;1.80;;
13443;SDS011;6794;59.218;18.218;2023-07-22T03:35:13;1.80;;;1.50;;
13443;SDS011;6794;59.218;18.218;2023-07-22T03:37:39;1.67;;;1.50;;
13443;SDS011;6794;59.218;18.218;2023-07-22T03:40:06;2.73;;;2.00;;
13443;SDS011;6794;59.218;18.218;2023-07-22T03:42:35;5.13;;;2.60;;
13443;SDS011;6794;59.218;18.218;2023-07-22T03:45:02;6.30;;;1.93;;
13443;SDS011;6794;59.218;18.218;2023-07-22T03:47:28;1.80;;;1.67;;
13443;SDS011;6794;59.218;18.218;2023-07-22T03:49:54;1.97;;;1.50;;
13443;SDS011;6794;59.218;18.218;2023-07-22T03:52:20;1.83;;;1.40;;
13443;SDS011;6794;59.218;18.218;2023-07-22T03:54:46;3.30;;;1.50;;
13443;SDS011;6794;59.218;18.218;2023-07-22T03:57:12;3.90;;;1.80;;
13443;SDS011;6794;59.218;18.218;2023-07-22T03:59:39;4.03;;;1.83;;
13443;SDS011;6794;59.218;18.218;2023-07-22T04:02:05;3.53;;;1.97;;
13443;SDS011;6794;59.218;18.218;2023-07-22T04:04:31;5.60;;;1.90;;
13443;SDS011;6794;59.218;18.218;2023-07-22T04:06:57;2.50;;;1.93;;
13443;SDS011;6794;59.218;18.218;2023-07-22T04:09:23;2.90;;;1.23;;
13443;SDS011;6794;59.218;18.218;2023-07-22T04:11:49;2.00;;;1.60;;
13443;SDS011;6794;59.218;18.218;2023-07-22T04:14:15;2.57;;;1.77;;
13443;SDS011;6794;59.218;18.218;2023-07-22T04:16:41;3.00;;;1.40;;
13443;SDS011;6794;59.218;18.218;2023-07-22T04:19:07;2.43;;;1.37;;
13443;SDS011;6794;59.218;18.218;2023-07-22T04:21:33;2.17;;;1.43;;
13443;SDS011;6794;59.218;18.218;2023-07-22T04:23:59;4.63;;;1.57;;
13443;SDS011;6794;59.218;18.218;2023-07-22T04:26:25;4.73;;;1.50;;
13443;SDS011;6794;59.218;18.218;2023-07-22T04:28:51;3.40;;;1.30;;
13443;SDS011;6794;59.218;18.218;2023-07-22T04:31:17;2.63;;;1.60;;
13443;SDS011;6794;59.218;18.218;2023-07-22T04:33:43;2.50;;;1.57;;
13443;SDS011;6794;59.218;18.218;2023-07-22T04:36:09;4.53;;;1.53;;
13443;SDS011;6794;59.218;18.218;2023-07-22T04:38:35;3.30;;;1.20;;
13443;SDS011;6794;59.218;18.218;2023-07-22T04:41:02;4.03;;;1.77;;
13443;SDS011;6794;59.218;18.218;2023-07-22T04:43:29;3.27;;;1.27;;
13443;SDS011;6794;59.218;18.218;2023-07-22T04:45:55;4.83;;;1.40;;
13443;SDS011;6794;59.218;18.218;2023-07-22T04:48:21;4.03;;;1.20;;
13443;SDS011;6794;59.218;18.218;2023-07-22T04:50:48;5.13;;;1.30;;
13443;SDS011;6794;59.218;18.218;2023-07-22T04:53:15;1.60;;;1.20;;
13443;SDS011;6794;59.218;18.218;2023-07-22T04:55:41;2.73;;;1.40;;
13443;SDS011;6794;59.218;18.218;2023-07-22T04:58:07;1.63;;;1.37;;
13443;SDS011;6794;59.218;18.218;2023-07-22T05:00:35;1.97;;;1.20;;
13443;SDS011;6794;59.218;18.218;2023-07-22T05:03:02;2.10;;;1.30;;
13443;SDS011;6794;59.218;18.218;2023-07-22T05:05:28;2.20;;;1.33;;
13443;SDS011;6794;59.218;18.218;2023-07-22T05:07:54;3.63;;;1.30;;
13443;SDS011;6794;59.218;18.218;2023-07-22T05:10:20;2.17;;;1.20;;
13443;SDS011;6794;59.218;18.218;2023-07-22T05:12:46;2.87;;;1.50;;
13443;SDS011;6794;59.218;18.218;2023-07-22T05:15:12;1.70;;;1.10;;
13443;SDS011;6794;59.218;18.218;2023-07-22T05:17:39;1.90;;;1.30;;
13443;SDS011;6794;59.218;18.218;2023-07-22T05:20:05;4.40;;;1.50;;
13443;SDS011;6794;59.218;18.218;2023-07-22T05:22:34;2.27;;;1.70;;
13443;SDS011;6794;59.218;18.218;2023-07-22T05:25:00;4.27;;;1.10;;
13443;SDS011;6794;59.218;18.218;2023-07-22T05:27:26;2.70;;;1.40;;
13443;SDS011;6794;59.218;18.218;2023-07-22T05:29:52;5.13;;;1.53;;
13443;SDS011;6794;59.218;18.218;2023-07-22T05:32:18;1.90;;;1.40;;
13443;SDS011;6794;59.218;18.218;2023-07-22T05:34:44;4.70;;;1.50;;
13443;SDS011;6794;59.218;18.218;2023-07-22T05:37:10;3.10;;;1.43;;
13443;SDS011;6794;59.218;18.218;2023-07-22T05:39:36;3.37;;;1.40;;
13443;SDS011;6794;59.218;18.218;2023-07-22T05:42:02;4.40;;;1.40;;
13443;SDS011;6794;59.218;18.218;2023-07-22T05:44:28;1.87;;;1.47;;
13443;SDS011;6794;59.218;18.218;2023-07-22T05:46:54;4.87;;;1.60;;
13443;SDS011;6794;59.218;18.218;2023-07-22T05:49:20;3.30;;;1.43;;
13443;SDS011;6794;59.218;18.218;2023-07-22T05:51:46;1.63;;;1.10;;
13443;SDS011;6794;59.218;18.218;2023-07-22T05:54:12;3.07;;;1.20;;
13443;SDS011;6794;59.218;18.218;2023-07-22T05:56:39;5.93;;;1.30;;
13443;SDS011;6794;59.218;18.218;2023-07-22T05:59:06;3.57;;;1.57;;
13443;SDS011;6794;59.218;18.218;2023-07-22T06:01:32;3.93;;;1.60;;
13443;SDS011;6794;59.218;18.218;2023-07-22T06:03:58;3.17;;;1.40;;
13443;SDS011;6794;59.218;18.218;2023-07-22T06:06:24;3.77;;;1.27;;
13443;SDS011;6794;59.218;18.218;2023-07-22T06:08:50;3.87;;;1.77;;
13443;SDS011;6794;59.218;18.218;2023-07-22T06:11:16;4.20;;;1.70;;
13443;SDS011;6794;59.218;18.218;2023-07-22T06:13:42;1.63;;;1.20;;
13443;SDS011;6794;59.218;18.218;2023-07-22T06:16:08;2.57;;;1.17;;
13443;SDS011;6794;59.218;18.218;2023-07-22T06:18:34;4.13;;;1.33;;
13443;SDS011;6794;59.218;18.218;2023-07-22T06:21:00;2.27;;;1.30;;
13443;SDS011;6794;59.218;18.218;2023-07-22T06:23:26;4.40;;;1.20;;
13443;SDS011;6794;59.218;18.218;2023-07-22T06:25:52;1.20;;;1.10;;
13443;SDS011;6794;59.218;18.218;2023-07-22T06:28:18;3.87;;;1.10;;
13443;SDS011;6794;59.218;18.218;2023-07-22T06:30:44;3.43;;;1.37;;
13443;SDS011;6794;59.218;18.218;2023-07-22T06:33:10;3.10;;;1.30;;
13443;SDS011;6794;59.218;18.218;2023-07-22T06:35:36;4.70;;;1.33;;
13443;SDS011;6794;59.218;18.218;2023-07-22T06:38:02;2.00;;;1.30;;
13443;SDS011;6794;59.218;18.218;2023-07-22T06:40:28;4.70;;;1.30;;
13443;SDS011;6794;59.218;18.218;2023-07-22T06:42:54;3.23;;;1.40;;
13443;SDS011;6794;59.218;18.218;2023-07-22T06:45:20;2.03;;;1.10;;
13443;SDS011;6794;59.218;18.218;2023-07-22T06:47:46;4.53;;;1.67;;
13443;SDS011;6794;59.218;18.218;2023-07-22T06:50:12;3.13;;;1.20;;
13443;SDS011;6794;59.218;18.218;2023-07-22T06:52:38;3.10;;;1.67;;
13443;SDS011;6794;59.218;18.218;2023-07-22T06:55:05;1.80;;;1.03;;
13443;SDS011;6794;59.218;18.218;2023-07-22T06:57:31;4.47;;;1.37;;
13443;SDS011;6794;59.218;18.218;2023-07-22T06:59:57;2.70;;;1.10;;
13443;SDS011;6794;59.218;18.218;2023-07-22T07:02:23;2.27;;;1.50;;
13443;SDS011;6794;59.218;18.218;2023-07-22T07:04:49;4.30;;;1.30;;
13443;SDS011;6794;59.218;18.218;2023-07-22T07:07:15;2.73;;;1.30;;
13443;SDS011;6794;59.218;18.218;2023-07-22T07:09:42;4.13;;;1.70;;
13443;SDS011;6794;59.218;18.218;2023-07-22T07:12:08;2.23;;;1.23;;
13443;SDS011;6794;59.218;18.218;2023-07-22T07:14:34;3.07;;;1.40;;
13443;SDS011;6794;59.218;18.218;2023-07-22T07:17:01;2.33;;;1.30;;
13443;SDS011;6794;59.218;18.218;2023-07-22T07:19:27;2.57;;;1.27;;
13443;SDS011;6794;59.218;18.218;2023-07-22T07:21:53;2.30;;;1.57;;
13443;SDS011;6794;59.218;18.218;2023-07-22T07:24:19;4.07;;;1.47;;
13443;SDS011;6794;59.218;18.218;2023-07-22T07:26:45;1.80;;;1.30;;
13443;SDS011;6794;59.218;18.218;2023-07-22T07:29:11;5.27;;;1.60;;
13443;SDS011;6794;59.218;18.218;2023-07-22T07:31:37;2.47;;;1.30;;
13443;SDS011;6794;59.218;18.218;2023-07-22T07:34:03;4.43;;;1.30;;
13443;SDS011;6794;59.218;18.218;2023-07-22T07:36:29;3.17;;;1.40;;
13443;SDS011;6794;59.218;18.218;2023-07-22T07:38:55;3.93;;;1.13;;
13443;SDS011;6794;59.218;18.218;2023-07-22T07:41:22;3.20;;;1.43;;
13443;SDS011;6794;59.218;18.218;2023-07-22T07:43:48;1.87;;;1.07;;
13443;SDS011;6794;59.218;18.218;2023-07-22T07:46:15;2.40;;;1.17;;
13443;SDS011;6794;59.218;18.218;2023-07-22T07:48:43;2.73;;;1.23;;
13443;SDS011;6794;59.218;18.218;2023-07-22T07:51:09;0.93;;;0.80;;
13443;SDS011;6794;59.218;18.218;2023-07-22T07:53:35;1.63;;;1.00;;
13443;SDS011;6794;59.218;18.218;2023-07-22T07:56:01;5.37;;;1.30;;
13443;SDS011;6794;59.218;18.218;2023-07-22T07:58:27;1.33;;;1.10;;
13443;SDS011;6794;59.218;18.218;2023-07-22T08:00:53;2.63;;;1.30;;
13443;SDS011;6794;59.218;18.218;2023-07-22T08:03:19;2.13;;;1.00;;
13443;SDS011;6794;59.218;18.218;2023-07-22T08:05:45;2.10;;;0.97;;
13443;SDS011;6794;59.218;18.218;2023-07-22T08:08:11;1.20;;;1.00;;
13443;SDS011;6794;59.218;18.218;2023-07-22T08:10:37;1.80;;;1.10;;
13443;SDS011;6794;59.218;18.218;2023-07-22T08:13:04;2.50;;;1.13;;
13443;SDS011;6794;59.218;18.218;2023-07-22T08:15:30;3.37;;;1.10;;
13443;SDS011;6794;59.218;18.218;2023-07-22T08:17:56;3.07;;;1.00;;
13443;SDS011;6794;59.218;18.218;2023-07-22T08:20:22;2.00;;;1.00;;
13443;SDS011;6794;59.218;18.218;2023-07-22T08:22:48;2.47;;;1.00;;
13443;SDS011;6794;59.218;18.218;2023-07-22T08:25:14;1.90;;;0.93;;
13443;SDS011;6794;59.218;18.218;2023-07-22T08:27:40;1.23;;;1.00;;
13443;SDS011;6794;59.218;18.218;2023-07-22T08:30:06;1.43;;;1.03;;
13443;SDS011;6794;59.218;18.218;2023-07-22T08:32:33;1.97;;;1.10;;
13443;SDS011;6794;59.218;18.218;2023-07-22T08:34:59;2.03;;;1.30;;
13443;SDS011;6794;59.218;18.218;2023-07-22T08:37:25;2.17;;;1.13;;
13443;SDS011;6794;59.218;18.218;2023-07-22T08:39:51;1.53;;;1.10;;
13443;SDS011;6794;59.218;18.218;2023-07-22T08:42:18;0.93;;;0.87;;
13443;SDS011;6794;59.218;18.218;2023-07-22T08:44:48;3.43;;;1.00;;
13443;SDS011;6794;59.218;18.218;2023-07-22T08:47:17;2.97;;;1.10;;
13443;SDS011;6794;59.218;18.218;2023-07-22T08:49:45;3.33;;;1.10;;
13443;SDS011;6794;59.218;18.218;2023-07-22T08:52:12;2.13;;;0.90;;
13443;SDS011;6794;59.218;18.218;2023-07-22T08:54:40;1.43;;;0.97;;
13443;SDS011;6794;59.218;18.218;2023-07-22T08:57:07;1.10;;;1.00;;
13443;SDS011;6794;59.218;18.218;2023-07-22T08:59:33;1.90;;;1.20;;
13443;SDS011;6794;59.218;18.218;2023-07-22T09:01:59;1.90;;;1.10;;
13443;SDS011;6794;59.218;18.218;2023-07-22T09:04:26;1.20;;;1.10;;
13443;SDS011;6794;59.218;18.218;2023-07-22T09:06:53;0.80;;;0.80;;
13443;SDS011;6794;59.218;18.218;2023-07-22T09:09:19;1.30;;;1.00;;
13443;SDS011;6794;59.218;18.218;2023-07-22T09:11:45;2.40;;;1.10;;
13443;SDS011;6794;59.218;18.218;2023-07-22T09:14:12;2.20;;;1.20;;
13443;SDS011;6794;59.218;18.218;2023-07-22T09:16:38;2.20;;;1.20;;
13443;SDS011;6794;59.218;18.218;2023-07-22T09:19:04;1.50;;;1.20;;
13443;SDS011;6794;59.218;18.218;2023-07-22T09:21:30;2.93;;;1.07;;
13443;SDS011;6794;59.218;18.218;2023-07-22T09:24:00;1.37;;;1.10;;
13443;SDS011;6794;59.218;18.218;2023-07-22T09:26:27;1.87;;;1.30;;
13443;SDS011;6794;59.218;18.218;2023-07-22T09:28:58;1.40;;;1.10;;
13443;SDS011;6794;59.218;18.218;2023-07-22T09:31:25;3.13;;;1.20;;
13443;SDS011;6794;59.218;18.218;2023-07-22T09:33:51;3.33;;;1.00;;
13443;SDS011;6794;59.218;18.218;2023-07-22T09:36:20;0.93;;;0.87;;
13443;SDS011;6794;59.218;18.218;2023-07-22T09:38:59;2.03;;;1.43;;
13443;SDS011;6794;59.218;18.218;2023-07-22T09:41:28;1.63;;;0.97;;
13443;SDS011;6794;59.218;18.218;2023-07-22T09:43:55;1.73;;;1.10;;
13443;SDS011;6794;59.218;18.218;2023-07-22T09:46:21;1.50;;;1.30;;
13443;SDS011;6794;59.218;18.218;2023-07-22T09:48:56;2.57;;;1.03;;
13443;SDS011;6794;59.218;18.218;2023-07-22T09:51:22;1.50;;;0.97;;
13443;SDS011;6794;59.218;18.218;2023-07-22T09:53:59;2.80;;;1.23;;
13443;SDS011;6794;59.218;18.218;2023-07-22T09:56:25;3.57;;;1.17;;
13443;SDS011;6794;59.218;18.218;2023-07-22T09:58:51;3.03;;;1.60;;
13443;SDS011;6794;59.218;18.218;2023-07-22T10:01:24;2.83;;;1.30;;
13443;SDS011;6794;59.218;18.218;2023-07-22T10:03:52;1.23;;;1.13;;
13443;SDS011;6794;59.218;18.218;2023-07-22T10:06:23;11.20;;;1.33;;
13443;SDS011;6794;59.218;18.218;2023-07-22T10:08:49;4.33;;;1.27;;
13443;SDS011;6794;59.218;18.218;2023-07-22T10:11:15;2.07;;;1.20;;
13443;SDS011;6794;59.218;18.218;2023-07-22T10:13:41;1.43;;;1.20;;
13443;SDS011;6794;59.218;18.218;2023-07-22T10:16:07;1.93;;;1.00;;
13443;SDS011;6794;59.218;18.218;2023-07-22T10:18:34;1.10;;;1.10;;
13443;SDS011;6794;59.218;18.218;2023-07-22T10:21:00;2.57;;;1.20;;
13443;SDS011;6794;59.218;18.218;2023-07-22T10:23:26;2.77;;;1.33;;
13443;SDS011;6794;59.218;18.218;2023-07-22T10:25:52;1.87;;;1.10;;
13443;SDS011;6794;59.218;18.218;2023-07-22T10:28:19;1.20;;;1.10;;
13443;SDS011;6794;59.218;18.218;2023-07-22T10:30:46;2.60;;;1.03;;
13443;SDS011;6794;59.218;18.218;2023-07-22T10:33:12;1.57;;;1.20;;
13443;SDS011;6794;59.218;18.218;2023-07-22T10:35:43;1.67;;;1.20;;
13443;SDS011;6794;59.218;18.218;2023-07-22T10:40:51;2.97;;;1.70;;
13443;SDS011;6794;59.218;18.218;2023-07-22T10:43:30;1.50;;;1.20;;
13443;SDS011;6794;59.218;18.218;2023-07-22T10:45:58;1.77;;;1.27;;
13443;SDS011;6794;59.218;18.218;2023-07-22T10:48:28;2.27;;;1.37;;
13443;SDS011;6794;59.218;18.218;2023-07-22T10:51:04;1.63;;;1.40;;
13443;SDS011;6794;59.218;18.218;2023-07-22T10:53:30;1.90;;;1.40;;
13443;SDS011;6794;59.218;18.218;2023-07-22T10:58:33;2.20;;;1.70;;
13443;SDS011;6794;59.218;18.218;2023-07-22T11:01:33;2.27;;;1.50;;
13443;SDS011;6794;59.218;18.218;2023-07-22T11:04:08;2.40;;;1.83;;
13443;SDS011;6794;59.218;18.218;2023-07-22T11:07:00;1.63;;;1.43;;
13443;SDS011;6794;59.218;18.218;2023-07-22T11:12:06;2.27;;;2.07;;
13443;SDS011;6794;59.218;18.218;2023-07-22T11:14:33;3.10;;;1.60;;
13443;SDS011;6794;59.218;18.218;2023-07-22T11:17:00;2.53;;;1.70;;
13443;SDS011;6794;59.218;18.218;2023-07-22T11:19:26;3.70;;;1.73;;
13443;SDS011;6794;59.218;18.218;2023-07-22T11:21:53;2.27;;;1.70;;
13443;SDS011;6794;59.218;18.218;2023-07-22T11:24:20;2.10;;;1.90;;
13443;SDS011;6794;59.218;18.218;2023-07-22T11:26:46;3.83;;;1.83;;
13443;SDS011;6794;59.218;18.218;2023-07-22T11:29:13;2.73;;;1.70;;
13443;SDS011;6794;59.218;18.218;2023-07-22T11:31:40;3.37;;;1.80;;
13443;SDS011;6794;59.218;18.218;2023-07-22T11:34:07;2.80;;;1.80;;
13443;SDS011;6794;59.218;18.218;2023-07-22T11:36:34;2.00;;;1.80;;
13443;SDS011;6794;59.218;18.218;2023-07-22T11:39:10;3.27;;;1.90;;
13443;SDS011;6794;59.218;18.218;2023-07-22T11:41:37;2.17;;;1.73;;
13443;SDS011;6794;59.218;18.218;2023-07-22T11:44:04;1.83;;;1.60;;
13443;SDS011;6794;59.218;18.218;2023-07-22T11:46:35;2.23;;;1.97;;
13443;SDS011;6794;59.218;18.218;2023-07-22T11:49:02;2.17;;;1.90;;
13443;SDS011;6794;59.218;18.218;2023-07-22T11:51:28;1.73;;;1.57;;
13443;SDS011;6794;59.218;18.218;2023-07-22T11:53:54;2.20;;;2.00;;
13443;SDS011;6794;59.218;18.218;2023-07-22T11:56:24;2.67;;;1.83;;
13443;SDS011;6794;59.218;18.218;2023-07-22T11:58:51;3.53;;;2.10;;
13443;SDS011;6794;59.218;18.218;2023-07-22T12:01:17;2.23;;;1.83;;
13443;SDS011;6794;59.218;18.218;2023-07-22T12:03:44;2.40;;;2.20;;
13443;SDS011;6794;59.218;18.218;2023-07-22T12:06:10;1.93;;;1.70;;
13443;SDS011;6794;59.218;18.218;2023-07-22T12:08:44;2.80;;;2.00;;
13443;SDS011;6794;59.218;18.218;2023-07-22T12:11:23;2.70;;;2.03;;
13443;SDS011;6794;59.218;18.218;2023-07-22T12:14:09;3.30;;;2.20;;
13443;SDS011;6794;59.218;18.218;2023-07-22T12:16:36;2.73;;;2.40;;
13443;SDS011;6794;59.218;18.218;2023-07-22T12:19:02;4.47;;;2.00;;
13443;SDS011;6794;59.218;18.218;2023-07-22T12:21:28;2.90;;;2.57;;
13443;SDS011;6794;59.218;18.218;2023-07-22T12:23:54;2.73;;;2.10;;
13443;SDS011;6794;59.218;18.218;2023-07-22T12:26:20;2.13;;;1.87;;
13443;SDS011;6794;59.218;18.218;2023-07-22T12:28:47;2.40;;;2.13;;
13443;SDS011;6794;59.218;18.218;2023-07-22T12:31:13;3.27;;;2.03;;
13443;SDS011;6794;59.218;18.218;2023-07-22T12:33:39;3.33;;;1.97;;
13443;SDS011;6794;59.218;18.218;2023-07-22T12:36:05;2.07;;;1.80;;
13443;SDS011;6794;59.218;18.218;2023-07-22T12:38:31;2.47;;;1.90;;
13443;SDS011;6794;59.218;18.218;2023-07-22T12:40:57;3.87;;;1.70;;
13443;SDS011;6794;59.218;18.218;2023-07-22T12:43:23;2.97;;;2.20;;
13443;SDS011;6794;59.218;18.218;2023-07-22T12:45:49;2.80;;;2.30;;
13443;SDS011;6794;59.218;18.218;2023-07-22T12:48:16;3.20;;;2.43;;
13443;SDS011;6794;59.218;18.218;2023-07-22T12:50:42;4.80;;;2.30;;
13443;SDS011;6794;59.218;18.218;2023-07-22T12:53:08;2.20;;;2.00;;
13443;SDS011;6794;59.218;18.218;2023-07-22T12:55:34;2.50;;;1.90;;
13443;SDS011;6794;59.218;18.218;2023-07-22T12:58:00;3.73;;;2.80;;
13443;SDS011;6794;59.218;18.218;2023-07-22T13:00:27;4.33;;;2.10;;
13443;SDS011;6794;59.218;18.218;2023-07-22T13:02:54;2.63;;;2.27;;
13443;SDS011;6794;59.218;18.218;2023-07-22T13:05:21;2.47;;;2.23;;
13443;SDS011;6794;59.218;18.218;2023-07-22T13:07:47;2.93;;;2.00;;
13443;SDS011;6794;59.218;18.218;2023-07-22T13:10:14;6.50;;;2.53;;
13443;SDS011;6794;59.218;18.218;2023-07-22T13:12:43;2.40;;;1.90;;
13443;SDS011;6794;59.218;18.218;2023-07-22T13:15:09;3.23;;;2.20;;
13443;SDS011;6794;59.218;18.218;2023-07-22T13:17:35;2.50;;;2.10;;
13443;SDS011;6794;59.218;18.218;2023-07-22T13:20:01;3.60;;;1.97;;
13443;SDS011;6794;59.218;18.218;2023-07-22T13:22:30;3.30;;;1.80;;
13443;SDS011;6794;59.218;18.218;2023-07-22T13:24:56;3.30;;;2.50;;
13443;SDS011;6794;59.218;18.218;2023-07-22T13:27:22;3.33;;;2.40;;
13443;SDS011;6794;59.218;18.218;2023-07-22T13:29:48;2.77;;;1.90;;
13443;SDS011;6794;59.218;18.218;2023-07-22T13:32:14;3.30;;;2.60;;
13443;SDS011;6794;59.218;18.218;2023-07-22T13:34:40;3.13;;;2.30;;
13443;SDS011;6794;59.218;18.218;2023-07-22T13:37:06;3.10;;;2.13;;
13443;SDS011;6794;59.218;18.218;2023-07-22T13:39:32;2.60;;;2.00;;
13443;SDS011;6794;59.218;18.218;2023-07-22T13:41:58;3.43;;;2.13;;
13443;SDS011;6794;59.218;18.218;2023-07-22T13:44:24;3.60;;;2.10;;
13443;SDS011;6794;59.218;18.218;2023-07-22T13:46:50;2.63;;;2.40;;
13443;SDS011;6794;59.218;18.218;2023-07-22T13:49:16;3.20;;;2.00;;
13443;SDS011;6794;59.218;18.218;2023-07-22T13:51:43;2.53;;;2.00;;
13443;SDS011;6794;59.218;18.218;2023-07-22T13:54:09;3.10;;;2.07;;
13443;SDS011;6794;59.218;18.218;2023-07-22T13:56:35;2.43;;;2.10;;
13443;SDS011;6794;59.218;18.218;2023-07-22T13:59:01;4.47;;;2.63;;
13443;SDS011;6794;59.218;18.218;2023-07-22T14:01:29;4.80;;;2.30;;
13443;SDS011;6794;59.218;18.218;2023-07-22T14:03:56;4.37;;;2.70;;
13443;SDS011;6794;59.218;18.218;2023-07-22T14:06:22;2.80;;;2.37;;
13443;SDS011;6794;59.218;18.218;2023-07-22T14:08:48;2.93;;;2.10;;
13443;SDS011;6794;59.218;18.218;2023-07-22T14:11:14;2.70;;;2.10;;
13443;SDS011;6794;59.218;18.218;2023-07-22T14:13:40;2.50;;;2.00;;
13443;SDS011;6794;59.218;18.218;2023-07-22T14:16:06;3.80;;;2.23;;
13443;SDS011;6794;59.218;18.218;2023-07-22T14:18:32;2.50;;;2.20;;
13443;SDS011;6794;59.218;18.218;2023-07-22T14:20:58;3.67;;;2.33;;
13443;SDS011;6794;59.218;18.218;2023-07-22T14:23:33;4.13;;;2.40;;
13443;SDS011;6794;59.218;18.218;2023-07-22T14:25:59;2.53;;;2.10;;
13443;SDS011;6794;59.218;18.218;2023-07-22T14:28:25;2.67;;;2.10;;
13443;SDS011;6794;59.218;18.218;2023-07-22T14:30:51;2.33;;;2.00;;
13443;SDS011;6794;59.218;18.218;2023-07-22T14:33:17;3.40;;;2.20;;
13443;SDS011;6794;59.218;18.218;2023-07-22T14:35:44;2.10;;;1.90;;
13443;SDS011;6794;59.218;18.218;2023-07-22T14:38:10;2.20;;;2.00;;
13443;SDS011;6794;59.218;18.218;2023-07-22T14:40:36;2.30;;;2.10;;
13443;SDS011;6794;59.218;18.218;2023-07-22T14:43:02;2.17;;;1.77;;
13443;SDS011;6794;59.218;18.218;2023-07-22T14:45:29;3.47;;;2.00;;
13443;SDS011;6794;59.218;18.218;2023-07-22T14:47:55;2.37;;;2.17;;
13443;SDS011;6794;59.218;18.218;2023-07-22T14:50:21;2.17;;;1.97;;
13443;SDS011;6794;59.218;18.218;2023-07-22T14:52:47;2.47;;;1.97;;